• Join FlightAware (Why Join?)
  • Login
  • US Flag 
11:05PM EDT


 

Airport Tracker/Info


-or-


 

Live Flight TrackerFlight Track Log ✈ N350WA ✈ 19-Jul-2013 ✈ KSQL - KTRK

Flight Track Log - Related Links

Times and Time Zones

All times are in EDT time to prevent confusion due to time zone crossing. See the N350WA flight status page for this flight to view local times or setup timezone preferences in your user account.

Time Position Orientation Groundspeed Altitude Reporting Facility
EDT Latitude Longitude Course Direction KTS MPH feet Rate Location/Type
12:36PM 37.4667 -122.2000 122° Southeast 123 142 2,100  Level Northern Cal TRACON
12:37PM 37.4333 -122.1667 142° Southeast 146 168 2,900 360 Climbing Northern Cal TRACON
12:38PM 37.4333 -122.1000 90° East 191 220 2,900 -60 Level Northern Cal TRACON
12:39PM 37.4500 -122.0500 67° East 193 222 2,800 -60 Descending Northern Cal TRACON
12:40PM 37.4500 -121.9833 90° East 195 224 2,800 420 Level Northern Cal TRACON
12:41PM 37.4333 -121.9333 113° Southeast 177 204 3,700 960 Climbing Northern Cal TRACON
12:42PM 37.4667 -121.9000 38° Northeast 176 203 4,800 600 Climbing Northern Cal TRACON
12:43PM 37.5167 -121.8833 15° North 194 223 4,900  Climbing Northern Cal TRACON
12:44PM 37.5667 -121.8500 28° Northeast 208 239 4,900 300 Level Northern Cal TRACON
12:45PM 37.6167 -121.8167 28° Northeast 195 224 5,600 480 Climbing Northern Cal TRACON
12:46PM 37.6667 -121.8000 15° North 194 223 5,900 720 Climbing Northern Cal TRACON
12:47PM 37.7167 -121.8000 360° North 193 222 7,100 1,020 Climbing Northern Cal TRACON
12:48PM 37.7667 -121.7833 15° North 184 212 8,000 900 Climbing Northern Cal TRACON
12:49PM 37.8167 -121.7667 15° North 186 214 8,900 840 Climbing Northern Cal TRACON
12:50PM 37.8667 -121.7500 15° North 194 223 9,700 900 Climbing Northern Cal TRACON
12:51PM 37.9167 -121.7333 15° North 181 208 10,800 900 Climbing Northern Cal TRACON
12:52PM 37.9836 -121.7025 20° North 188 216 11,900 780 Climbing Oakland Center
12:53PM 38.0339 -121.6856 15° North 189 217 12,800 780 Climbing Oakland Center
12:54PM 38.0842 -121.6717 12° North 187 215 13,600 840 Climbing Oakland Center
12:55PM 38.1464 -121.6531 13° North 192 221 14,600 780 Climbing Oakland Center
12:56PM 38.1967 -121.6369 14° North 189 217 15,300 660 Climbing Oakland Center
12:57PM 38.2494 -121.6164 17° North 194 223 16,000 780 Climbing Oakland Center
12:58PM 38.2994 -121.6003 14° North 191 220 16,900 720 Climbing Oakland Center
12:59PM 38.3486 -121.5842 14° North 185 213 17,500 720 Climbing Oakland Center
01:00PM 38.3983 -121.5692 13° North 184 212 18,400 780 Climbing Oakland Center
01:01PM 38.4447 -121.5519 16° North 174 200 19,100 720 Climbing Oakland Center
01:02PM 38.4903 -121.5044 39° Northeast 178 205 19,900 660 Climbing Oakland Center
01:03PM 38.5169 -121.4569 54° Northeast 170 196 20,500 480 Climbing Oakland Center
01:05PM 38.5408 -121.4019 61° Northeast 177 204 20,900 240 Climbing Oakland Center
01:06PM 38.5650 -121.3403 63° Northeast 194 223 21,000  Climbing Oakland Center
01:07PM 38.5989 -121.2775 55° Northeast 207 238 21,000  Level Oakland Center
01:08PM 38.6406 -121.2178 48° Northeast 229 264 21,000  Level Oakland Center
01:09PM 38.6844 -121.1508 50° Northeast 224 258 21,000  Level Oakland Center
01:10PM 38.7219 -121.0875 53° Northeast 224 258 21,000  Level Oakland Center
01:11PM 38.7569 -121.0233 55° Northeast 220 253 21,000  Level Oakland Center
01:12PM 38.7922 -120.9572 56° Northeast 223 257 21,000  Level Oakland Center
01:13PM 38.8286 -120.8928 54° Northeast 223 257 21,000  Level Oakland Center
01:14PM 38.8650 -120.8303 53° Northeast 220 253 21,000  Level Oakland Center
01:15PM 38.9114 -120.7533 52° Northeast 226 260 21,000 -60 Level Oakland Center
01:16PM 38.9483 -120.6894 53° Northeast 224 258 20,900 -360 Descending Oakland Center
01:17PM 38.9850 -120.6258 53° Northeast 220 253 20,300 -780 Descending Oakland Center
01:18PM 39.0406 -120.5872 28° Northeast 231 266 19,400 -780 Descending Oakland Center
01:19PM 39.0997 -120.5544 23° Northeast 231 266 18,700 -1,080 Descending Oakland Center
01:20PM 39.1564 -120.5183 26° Northeast 228 262 17,200 -1,620 Descending Oakland Center
01:21PM 39.2083 -120.4750 33° Northeast 223 257 15,500 -1,620 Descending Oakland Center
01:22PM 39.2394 -120.3892 65° Northeast 217 250 14,000 -1,440 Descending Oakland Center
01:23PM 39.2642 -120.3225 64° Northeast 210 242 12,600 -1,560 Descending Oakland Center
01:24PM 39.2972 -120.2606 55° Northeast 208 239 10,800 -1,800 Descending Oakland Center